createdAt,value
2019-06-08T00:00:52.426Z,65.40
2019-06-08T00:03:21.183Z,65.16
2019-06-08T00:05:50.000Z,64.95
2019-06-08T00:08:19.198Z,64.92
2019-06-08T00:10:48.457Z,64.69
2019-06-08T00:13:17.152Z,64.85
2019-06-08T00:15:45.867Z,64.78
2019-06-08T00:18:15.267Z,64.79
2019-06-08T00:20:44.257Z,64.98
2019-06-08T00:23:13.744Z,65.10
2019-06-08T00:25:42.493Z,64.92
2019-06-08T00:28:11.190Z,65.01
2019-06-08T00:30:41.385Z,65.45
2019-06-08T00:33:10.389Z,65.31
2019-06-08T00:35:39.107Z,65.46
2019-06-08T00:38:07.852Z,65.82
2019-06-08T00:40:36.556Z,66.26
2019-06-08T00:43:05.267Z,66.69
2019-06-08T00:45:34.022Z,66.74
2019-06-08T00:48:02.728Z,66.80
2019-06-08T00:50:31.457Z,66.94
2019-06-08T00:53:00.181Z,66.92
2019-06-08T00:55:29.894Z,67.03
2019-06-08T00:57:58.777Z,67.13
2019-06-08T01:00:27.532Z,67.12
2019-06-08T01:02:56.251Z,67.07
2019-06-08T01:05:26.091Z,66.99
2019-06-08T01:07:55.051Z,66.98
2019-06-08T01:10:25.419Z,66.84
2019-06-08T01:12:54.392Z,66.93
2019-06-08T01:15:29.678Z,67.38
2019-06-08T01:18:02.783Z,67.47
2019-06-08T01:20:25.631Z,67.60
2019-06-08T01:22:54.573Z,67.54
2019-06-08T01:25:23.681Z,67.99
2019-06-08T01:27:52.617Z,68.07
2019-06-08T01:30:22.168Z,68.34
2019-06-08T01:32:51.223Z,68.50
2019-06-08T01:35:20.809Z,68.72
2019-06-08T01:37:49.761Z,68.76
2019-06-08T01:40:18.474Z,69.11
2019-06-08T01:42:47.179Z,69.04
2019-06-08T01:45:18.372Z,69.38
2019-06-08T01:47:47.090Z,69.49
2019-06-08T01:50:15.858Z,70.28
2019-06-08T01:52:44.558Z,70.56
2019-06-08T01:55:13.362Z,69.91
2019-06-08T01:57:42.124Z,69.71
2019-06-08T02:00:29.392Z,69.84
2019-06-08T02:02:41.491Z,69.59
2019-06-08T02:05:10.310Z,69.62
2019-06-08T02:07:39.040Z,70.04
2019-06-08T02:10:08.775Z,69.88
2019-06-08T02:12:37.485Z,69.79
2019-06-08T02:15:07.498Z,70.17
2019-06-08T02:17:36.722Z,69.93
2019-06-08T02:20:08.491Z,70.13
2019-06-08T02:22:37.341Z,70.12
2019-06-08T02:25:08.353Z,70.29
2019-06-08T02:27:37.558Z,70.76
2019-06-08T02:30:09.443Z,70.98
2019-06-08T02:32:38.146Z,70.66
2019-06-08T02:35:07.494Z,70.94
2019-06-08T02:37:38.322Z,71.25
2019-06-08T02:40:07.050Z,71.32
2019-06-08T02:42:37.209Z,71.23
2019-06-08T02:45:07.667Z,71.31
2019-06-08T02:47:36.813Z,71.40
2019-06-08T02:50:07.667Z,71.59
2019-06-08T02:52:40.612Z,71.51
2019-06-08T02:55:09.616Z,71.96
2019-06-08T02:57:40.045Z,71.81
2019-06-08T03:00:10.505Z,71.32
2019-06-08T03:02:42.366Z,71.34
2019-06-08T03:05:11.877Z,71.21
2019-06-08T03:07:42.760Z,70.89
2019-06-08T03:10:12.411Z,71.05
2019-06-08T03:12:42.727Z,70.54
2019-06-08T03:15:11.951Z,69.76
2019-06-08T03:17:42.083Z,68.46
2019-06-08T03:20:11.045Z,67.32
2019-06-08T03:22:41.882Z,66.35
2019-06-08T03:25:10.183Z,65.16
2019-06-08T03:27:40.637Z,63.88
2019-06-08T03:30:17.044Z,62.90
2019-06-08T03:32:47.263Z,62.45
2019-06-08T03:35:10.248Z,61.08
2019-06-08T03:37:40.052Z,60.67
2019-06-08T03:40:09.602Z,59.72
2019-06-08T03:42:38.289Z,59.16
2019-06-08T03:45:07.795Z,58.59
2019-06-08T03:47:37.293Z,57.53
2019-06-08T03:50:08.528Z,55.70
2019-06-08T03:52:37.890Z,54.77
2019-06-08T03:55:07.829Z,54.13
2019-06-08T03:57:38.222Z,52.89
2019-06-08T04:00:13.329Z,52.45
2019-06-08T04:02:39.835Z,52.70
2019-06-08T04:05:10.238Z,52.46
2019-06-08T04:07:39.879Z,51.70
2019-06-08T04:10:10.030Z,51.19
2019-06-08T04:12:39.955Z,50.77
2019-06-08T04:15:08.934Z,50.21
2019-06-08T04:17:37.897Z,51.52
2019-06-08T04:20:11.508Z,51.61
2019-06-08T04:22:42.111Z,51.53
2019-06-08T04:41:43.155Z,56.42
2019-06-08T04:44:13.099Z,56.74
2019-06-08T04:46:43.252Z,54.98
2019-06-08T04:49:12.270Z,54.90
2019-06-08T04:51:42.414Z,54.04
2019-06-08T04:54:14.421Z,54.04
2019-06-08T04:56:42.777Z,54.11
2019-06-08T04:59:11.818Z,55.32
2019-06-08T05:01:40.890Z,54.23
2019-06-08T05:04:09.757Z,54.63
2019-06-08T05:06:39.008Z,54.63
2019-06-08T05:09:08.650Z,53.94
2019-06-08T05:11:38.940Z,53.88
2019-06-08T05:14:09.491Z,53.79
2019-06-08T05:16:39.116Z,53.51
2019-06-08T05:19:07.990Z,53.52
2019-06-08T05:21:36.695Z,53.19
2019-06-08T05:24:05.401Z,53.34
2019-06-08T05:26:34.150Z,54.14
2019-06-08T05:29:02.872Z,51.63
2019-06-08T05:31:31.582Z,53.33
2019-06-08T05:34:00.334Z,51.95
2019-06-08T05:36:29.034Z,51.96
2019-06-08T05:38:57.854Z,50.00
2019-06-08T05:41:26.569Z,49.61
2019-06-08T05:43:55.277Z,47.14
2019-06-08T05:46:24.081Z,46.92
2019-06-08T05:48:52.801Z,44.69
2019-06-08T05:51:21.510Z,43.20
2019-06-08T05:53:50.334Z,42.93
2019-06-08T05:56:19.103Z,39.89
2019-06-08T05:58:48.134Z,38.24
2019-06-08T06:01:17.050Z,39.67
2019-06-08T06:03:46.528Z,38.42
2019-06-08T06:06:15.552Z,36.29
2019-06-08T06:08:44.654Z,36.50
2019-06-08T06:11:13.507Z,36.31
2019-06-08T06:13:42.689Z,36.62
2019-06-08T06:16:11.537Z,37.59
2019-06-08T06:18:40.972Z,39.80
2019-06-08T06:21:12.117Z,41.68
2019-06-08T06:23:41.156Z,43.68
2019-06-08T06:26:09.891Z,45.53
2019-06-08T06:28:38.710Z,45.32
2019-06-08T06:31:07.405Z,45.80
2019-06-08T06:33:36.182Z,47.11
2019-06-08T06:36:04.997Z,47.90
2019-06-08T06:38:33.721Z,47.83
2019-06-08T06:41:02.440Z,48.73
2019-06-08T06:43:31.160Z,48.83
2019-06-08T06:45:59.907Z,49.81
2019-06-08T06:48:28.617Z,50.35
2019-06-08T06:50:57.326Z,49.56
2019-06-08T06:53:26.044Z,49.02
2019-06-08T06:55:54.752Z,49.83
2019-06-08T06:58:23.510Z,48.16
2019-06-08T07:00:53.758Z,48.65
2019-06-08T07:03:22.613Z,49.63
2019-06-08T07:05:51.963Z,48.85
2019-06-08T07:08:20.948Z,49.37
2019-06-08T07:10:50.814Z,49.51
2019-06-08T07:13:19.889Z,50.21
2019-06-08T07:15:51.527Z,50.12
2019-06-08T07:18:19.066Z,50.17
2019-06-08T07:20:48.111Z,49.96
2019-06-08T07:23:17.053Z,50.67
2019-06-08T07:25:46.283Z,52.22
2019-06-08T07:28:15.318Z,51.28
2019-06-08T07:30:44.035Z,50.89
2019-06-08T07:33:12.748Z,50.31
2019-06-08T07:35:41.466Z,50.81
2019-06-08T07:38:10.238Z,50.08
2019-06-08T07:40:38.939Z,50.33
2019-06-08T07:43:07.648Z,50.75
2019-06-08T07:45:36.373Z,50.13
2019-06-08T07:48:05.181Z,49.46
2019-06-08T07:50:33.942Z,49.30
2019-06-08T07:53:02.654Z,48.49
2019-06-08T07:55:31.359Z,47.83
2019-06-08T07:58:00.390Z,46.59
2019-06-08T08:00:29.222Z,45.97
2019-06-08T08:02:58.309Z,45.44
2019-06-08T08:05:27.150Z,46.06
2019-06-08T08:07:56.887Z,44.96
2019-06-08T08:10:25.743Z,45.36
2019-06-08T08:12:54.747Z,45.36
2019-06-08T08:15:23.771Z,45.24
2019-06-08T08:17:53.817Z,46.80
2019-06-08T08:20:22.668Z,45.00
2019-06-08T08:22:55.803Z,44.83
2019-06-08T08:25:21.812Z,43.43
2019-06-08T08:27:51.922Z,43.48
2019-06-08T08:30:21.164Z,44.05
2019-06-08T08:32:51.446Z,43.46
2019-06-08T08:35:20.322Z,43.80
2019-06-08T08:37:53.142Z,43.96
2019-06-08T08:40:19.521Z,44.08
2019-06-08T08:42:50.511Z,44.56
2019-06-08T08:45:19.364Z,42.57
2019-06-08T08:47:48.563Z,42.41
2019-06-08T08:50:18.468Z,42.89
2019-06-08T08:52:47.698Z,44.40
2019-06-08T08:55:20.306Z,44.43
2019-06-08T08:57:48.366Z,43.94
2019-06-08T09:00:18.255Z,44.38
2019-06-08T09:02:50.252Z,44.03
2019-06-08T09:05:18.201Z,43.98
2019-06-08T09:07:48.289Z,44.83
2019-06-08T09:10:18.348Z,44.20
2019-06-08T09:12:48.526Z,45.00
2019-06-08T09:15:19.247Z,42.21
2019-06-08T09:17:48.434Z,41.75
2019-06-08T09:20:19.329Z,42.24
2019-06-08T09:22:56.426Z,41.83
2019-06-08T09:25:18.828Z,40.65
2019-06-08T09:27:48.374Z,40.88
2019-06-08T09:30:18.267Z,41.01
2019-06-08T09:32:47.900Z,41.72
2019-06-08T09:35:18.625Z,41.53
2019-06-08T09:37:48.560Z,40.82
2019-06-08T09:40:17.508Z,41.15
2019-06-08T09:42:46.213Z,42.02
2019-06-08T09:45:14.907Z,40.10
2019-06-08T09:47:43.629Z,39.99
2019-06-08T09:50:13.026Z,40.29
2019-06-08T09:52:41.768Z,41.19
2019-06-08T09:55:10.713Z,40.74
2019-06-08T09:57:39.550Z,39.49
2019-06-08T10:00:18.085Z,39.74
2019-06-08T10:02:40.243Z,39.28
2019-06-08T10:05:08.955Z,38.82
2019-06-08T10:07:38.823Z,37.96
2019-06-08T10:10:09.869Z,37.80
2019-06-08T10:12:40.957Z,38.23
2019-06-08T10:15:10.264Z,37.40
2019-06-08T10:17:38.967Z,37.96
2019-06-08T10:20:10.009Z,38.58
2019-06-08T10:22:38.228Z,36.78
2019-06-08T10:25:11.137Z,37.61
2019-06-08T10:27:39.405Z,37.23
2019-06-08T10:30:10.614Z,37.65
2019-06-08T10:32:39.495Z,37.40
2019-06-08T10:35:10.518Z,36.43
2019-06-08T10:37:39.827Z,36.24
2019-06-08T10:40:09.817Z,37.56
2019-06-08T10:42:40.240Z,36.59
2019-06-08T10:45:13.120Z,36.47
2019-06-08T10:47:40.438Z,36.67
2019-06-08T10:50:15.152Z,36.98
2019-06-08T10:52:41.055Z,36.26
2019-06-08T10:55:12.090Z,36.33
2019-06-08T10:57:40.292Z,36.29
2019-06-08T11:00:20.225Z,37.33
2019-06-08T11:02:41.938Z,36.26
2019-06-08T11:05:13.943Z,36.78
2019-06-08T11:07:41.186Z,35.92
2019-06-08T11:10:12.425Z,36.60
2019-06-08T11:12:41.253Z,36.97
2019-06-08T11:15:11.843Z,38.48
2019-06-08T11:17:40.785Z,37.85
2019-06-08T11:20:13.009Z,38.09
2019-06-08T11:22:39.948Z,36.44
2019-06-08T11:25:15.683Z,37.16
2019-06-08T11:27:39.530Z,36.21
2019-06-08T11:30:14.199Z,35.61
2019-06-08T11:32:38.765Z,35.91
2019-06-08T11:35:12.375Z,36.25
2019-06-08T11:37:40.963Z,35.51
2019-06-08T11:40:12.400Z,35.71
2019-06-08T11:42:40.748Z,36.07
2019-06-08T11:45:12.631Z,35.11
2019-06-08T11:47:40.910Z,35.31
2019-06-08T11:50:13.060Z,35.25
2019-06-08T11:52:41.052Z,35.34
2019-06-08T11:55:12.515Z,35.77
2019-06-08T11:57:40.992Z,36.86
2019-06-08T12:00:24.258Z,37.63
2019-06-08T12:02:42.097Z,36.96
2019-06-08T12:05:12.946Z,37.83
2019-06-08T12:07:41.379Z,36.85
2019-06-08T12:10:12.513Z,35.90
2019-06-08T12:12:40.602Z,35.38
2019-06-08T12:15:11.571Z,34.99
2019-06-08T12:17:39.752Z,34.41
2019-06-08T12:20:12.826Z,34.47
2019-06-08T12:22:40.248Z,34.45
2019-06-08T12:25:10.287Z,35.33
2019-06-08T12:27:40.176Z,35.19
2019-06-08T12:30:17.333Z,35.84
2019-06-08T12:32:39.646Z,36.24
2019-06-08T12:35:10.678Z,35.25
2019-06-08T12:37:39.204Z,35.27
2019-06-08T12:40:11.694Z,35.50
2019-06-08T12:42:38.676Z,35.13
2019-06-08T12:45:07.680Z,36.09
2019-06-08T12:47:38.112Z,35.24
2019-06-08T12:50:09.052Z,36.02
2019-06-08T12:52:39.214Z,34.17
2019-06-08T12:55:14.321Z,34.71
2019-06-08T12:57:39.401Z,34.34
2019-06-08T13:00:11.110Z,34.08
2019-06-08T13:02:39.788Z,33.57
2019-06-08T13:05:13.307Z,34.65
2019-06-08T13:07:39.262Z,33.05
2019-06-08T13:10:08.959Z,33.64
2019-06-08T13:12:40.740Z,33.89
2019-06-08T13:15:10.098Z,34.31
2019-06-08T13:17:38.936Z,33.61
2019-06-08T13:20:10.641Z,33.33
2019-06-08T13:22:39.300Z,33.90
2019-06-08T13:25:21.077Z,34.03
2019-06-08T13:27:38.491Z,32.85
2019-06-08T13:30:07.800Z,33.30
2019-06-08T13:32:38.262Z,33.57
2019-06-08T13:35:08.346Z,32.84
2019-06-08T13:37:38.997Z,33.66
2019-06-08T13:40:08.290Z,34.32
2019-06-08T13:42:38.291Z,34.21
2019-06-08T13:45:07.998Z,33.38
2019-06-08T13:47:40.657Z,32.99
2019-06-08T13:50:11.082Z,34.56
2019-06-08T13:52:39.579Z,34.65
2019-06-08T13:55:09.391Z,34.65
2019-06-08T13:57:38.103Z,35.14
2019-06-08T14:00:08.640Z,34.49
2019-06-08T14:02:39.689Z,34.30
2019-06-08T14:05:08.515Z,34.86
2019-06-08T14:07:38.078Z,34.90
2019-06-08T14:10:09.653Z,34.52
2019-06-08T14:12:38.625Z,34.66
2019-06-08T14:15:08.539Z,34.02
2019-06-08T14:17:37.967Z,34.39
2019-06-08T14:20:08.029Z,35.17
2019-06-08T14:22:38.856Z,35.00
2019-06-08T14:25:10.500Z,34.67
2019-06-08T14:27:38.310Z,34.95
2019-06-08T14:30:08.592Z,35.40
2019-06-08T14:32:38.113Z,34.97
2019-06-08T14:35:08.730Z,35.39
2019-06-08T14:37:38.078Z,35.41
2019-06-08T14:40:08.382Z,35.99
2019-06-08T14:42:38.361Z,36.58
2019-06-08T14:45:10.854Z,36.92
2019-06-08T14:47:38.834Z,36.53
2019-06-08T14:50:08.447Z,36.27
2019-06-08T14:52:38.172Z,36.15
2019-06-08T14:55:08.103Z,37.14
2019-06-08T14:57:37.557Z,37.81
2019-06-08T15:00:12.165Z,37.07
2019-06-08T15:02:39.356Z,36.83
2019-06-08T15:05:08.081Z,36.78
2019-06-08T15:07:38.879Z,36.62
2019-06-08T15:10:09.798Z,37.33
2019-06-08T15:12:38.444Z,37.34
2019-06-08T15:15:10.942Z,37.48
2019-06-08T15:17:38.214Z,37.08
2019-06-08T15:20:10.135Z,36.98
2019-06-08T15:22:39.088Z,36.33
2019-06-08T15:25:10.995Z,36.53
2019-06-08T15:27:38.987Z,36.41
2019-06-08T15:30:08.033Z,37.03
2019-06-08T15:32:38.696Z,36.39
2019-06-08T15:35:08.029Z,37.89
2019-06-08T15:37:38.120Z,37.71
2019-06-08T15:40:08.657Z,36.60
2019-06-08T15:42:37.486Z,36.78
2019-06-08T15:45:08.305Z,36.20
2019-06-08T15:47:40.590Z,34.91
2019-06-08T15:50:08.850Z,34.56
2019-06-08T15:52:38.184Z,34.94
2019-06-08T15:55:10.956Z,34.86
2019-06-08T15:57:40.803Z,35.30
2019-06-08T16:00:10.184Z,36.24
2019-06-08T16:02:39.272Z,36.19
2019-06-08T16:05:09.288Z,36.29
2019-06-08T16:07:37.988Z,36.37
2019-06-08T16:10:08.206Z,36.38
2019-06-08T16:12:36.903Z,36.28
2019-06-08T16:15:07.018Z,36.78
2019-06-08T16:17:35.783Z,36.43
2019-06-08T16:20:05.103Z,36.35
2019-06-08T16:22:33.929Z,35.49
2019-06-08T16:25:02.645Z,35.20
2019-06-08T16:27:32.137Z,35.99
2019-06-08T16:30:08.634Z,36.28
2019-06-08T16:32:31.658Z,37.26
2019-06-08T16:35:00.390Z,37.95
2019-06-08T16:37:29.531Z,39.29
2019-06-08T16:39:58.342Z,39.41
2019-06-08T16:42:27.858Z,39.40
2019-06-08T16:44:56.898Z,39.79
2019-06-08T16:47:26.922Z,39.66
2019-06-08T16:49:56.036Z,40.24
2019-06-08T16:52:26.136Z,40.85
2019-06-08T16:54:56.615Z,41.36
2019-06-08T16:57:25.345Z,41.85
2019-06-08T16:59:54.098Z,41.84
2019-06-08T17:02:22.817Z,42.28
2019-06-08T17:04:51.570Z,42.36
2019-06-08T17:07:20.294Z,42.64
2019-06-08T17:09:49.009Z,42.74
2019-06-08T17:12:17.884Z,44.34
2019-06-08T17:14:46.626Z,46.20
2019-06-08T17:17:15.324Z,46.77
2019-06-08T17:19:44.060Z,47.52
2019-06-08T17:22:12.765Z,47.46
2019-06-08T17:24:41.549Z,48.32
2019-06-08T17:27:25.827Z,48.77
2019-06-08T17:29:41.005Z,49.05
2019-06-08T17:32:09.827Z,49.73
2019-06-08T17:34:38.565Z,50.56
2019-06-08T17:37:07.352Z,50.64
2019-06-08T17:39:36.077Z,51.26
2019-06-08T17:42:04.803Z,50.99
2019-06-08T17:44:34.921Z,51.26
2019-06-08T17:47:04.182Z,50.75
2019-06-08T17:49:32.957Z,51.09
2019-06-08T17:52:01.949Z,50.07
2019-06-08T17:54:30.719Z,50.66
2019-06-08T17:56:59.433Z,50.18
2019-06-08T17:59:28.150Z,50.19
2019-06-08T18:01:57.651Z,51.81
2019-06-08T18:04:28.099Z,51.96
2019-06-08T18:06:58.065Z,51.99
2019-06-08T18:09:28.122Z,52.39
2019-06-08T18:11:59.519Z,53.57
2019-06-08T18:14:30.664Z,54.24
2019-06-08T18:16:57.932Z,54.28
2019-06-08T18:19:29.377Z,54.86
2019-06-08T18:22:04.013Z,55.77
2019-06-08T18:24:31.625Z,55.59
2019-06-08T18:27:00.346Z,55.26
2019-06-08T18:29:29.091Z,54.27
2019-06-08T18:31:58.327Z,53.65
2019-06-08T18:34:28.489Z,53.14
2019-06-08T18:36:58.016Z,53.31
2019-06-08T18:39:28.935Z,53.12
2019-06-08T18:41:58.905Z,51.98
2019-06-08T18:44:28.591Z,53.04
2019-06-08T18:46:58.037Z,53.09
2019-06-08T18:49:28.765Z,53.21
2019-06-08T18:51:58.245Z,54.36
2019-06-08T18:54:27.988Z,54.43
2019-06-08T18:56:57.244Z,54.35
2019-06-08T18:59:28.389Z,53.31
2019-06-08T19:01:56.415Z,52.59
2019-06-08T19:04:30.047Z,54.03
2019-06-08T19:06:56.192Z,54.49
2019-06-08T19:09:25.410Z,54.97
2019-06-08T19:11:54.115Z,56.64
2019-06-08T19:14:22.881Z,56.64
2019-06-08T19:16:54.619Z,55.99
2019-06-08T19:19:22.032Z,55.64
2019-06-08T19:21:50.743Z,55.69
2019-06-08T19:24:19.490Z,55.69
2019-06-08T19:26:49.075Z,55.56
2019-06-08T19:29:19.452Z,55.10
2019-06-08T19:31:51.182Z,54.99
2019-06-08T19:34:18.708Z,54.92
2019-06-08T19:36:52.149Z,55.14
2019-06-08T19:39:18.099Z,55.01
2019-06-08T19:41:49.235Z,55.48
2019-06-08T19:44:18.309Z,55.60
2019-06-08T19:46:51.153Z,55.47
2019-06-08T19:49:17.838Z,55.30
2019-06-08T19:51:48.536Z,55.54
2019-06-08T19:54:18.352Z,55.68
2019-06-08T19:56:49.381Z,56.00
2019-06-08T19:59:18.383Z,55.84
2019-06-08T20:01:52.630Z,55.68
2019-06-08T20:04:18.735Z,55.55
2019-06-08T20:06:49.042Z,55.82
2019-06-08T20:09:18.029Z,55.69
2019-06-08T20:11:53.027Z,55.74
2019-06-08T20:14:18.744Z,55.66
2019-06-08T20:16:49.320Z,56.00
2019-06-08T20:19:17.889Z,55.59
2019-06-08T20:21:51.031Z,55.65
2019-06-08T20:24:18.433Z,55.76
2019-06-08T20:26:51.764Z,55.51
2019-06-08T20:29:20.079Z,55.71
2019-06-08T20:31:51.425Z,55.95
2019-06-08T20:34:19.677Z,55.24
2019-06-08T20:36:48.721Z,55.08
2019-06-08T20:39:18.149Z,55.08
2019-06-08T20:41:49.792Z,55.31
2019-06-08T20:44:17.378Z,55.55
2019-06-08T20:46:48.555Z,55.30
2019-06-08T20:49:17.210Z,55.29
2019-06-08T20:51:49.059Z,54.94
2019-06-08T20:54:17.246Z,54.91
2019-06-08T20:56:47.913Z,54.47
2019-06-08T20:59:29.570Z,54.25
2019-06-08T21:01:48.779Z,53.68
2019-06-08T21:04:18.215Z,53.61
2019-06-08T21:06:48.645Z,53.69
2019-06-08T21:09:18.599Z,54.00
2019-06-08T21:11:49.803Z,54.19
2019-06-08T21:14:17.988Z,54.43
2019-06-08T21:16:49.008Z,55.12
2019-06-08T21:19:17.489Z,55.12
2019-06-08T21:21:47.844Z,55.85
2019-06-08T21:24:17.306Z,56.02
2019-06-08T21:26:50.675Z,56.23
2019-06-08T21:29:17.603Z,56.39
2019-06-08T21:31:50.174Z,56.43
2019-06-08T21:34:18.134Z,56.47
2019-06-08T21:36:49.353Z,56.59
2019-06-08T21:39:17.457Z,56.66
2019-06-08T21:41:50.083Z,57.05
2019-06-08T21:44:16.593Z,57.22
2019-06-08T21:46:47.445Z,57.16
2019-06-08T21:49:18.198Z,57.23
2019-06-08T21:51:48.509Z,57.24
2019-06-08T21:54:17.585Z,57.35
2019-06-08T21:56:48.827Z,57.29
2019-06-08T21:59:18.221Z,57.43
2019-06-08T22:01:50.438Z,57.36
2019-06-08T22:04:18.522Z,57.22
2019-06-08T22:06:48.044Z,57.27
2019-06-08T22:09:17.660Z,57.21
2019-06-08T22:11:47.192Z,57.14
2019-06-08T22:14:15.941Z,57.20
2019-06-08T22:16:44.648Z,57.24
2019-06-08T22:19:13.423Z,57.00
2019-06-08T22:21:42.135Z,56.88
2019-06-08T22:24:10.855Z,56.51
2019-06-08T22:26:39.614Z,56.10
2019-06-08T22:29:08.323Z,55.75
2019-06-08T22:31:37.651Z,55.41
2019-06-08T22:34:06.432Z,55.33
2019-06-08T22:36:37.217Z,55.37
2019-06-08T22:39:08.077Z,54.98
2019-06-08T22:41:37.399Z,54.52
2019-06-08T22:44:08.292Z,54.14
2019-06-08T22:46:37.497Z,54.07
2019-06-08T22:49:08.014Z,53.53
2019-06-08T22:51:38.299Z,53.30
2019-06-08T22:54:07.999Z,53.38
2019-06-08T22:56:37.336Z,53.05
2019-06-08T22:59:08.988Z,53.19
2019-06-08T23:01:38.351Z,52.95
2019-06-08T23:04:08.971Z,53.09
2019-06-08T23:06:38.648Z,53.28
2019-06-08T23:09:08.842Z,53.35
2019-06-08T23:11:37.859Z,53.50
2019-06-08T23:14:12.869Z,53.56
2019-06-08T23:16:36.999Z,53.82
2019-06-08T23:19:08.035Z,53.65
2019-06-08T23:21:38.415Z,53.71
2019-06-08T23:24:08.480Z,53.86
2019-06-08T23:26:37.382Z,53.85
2019-06-08T23:29:07.809Z,54.16
2019-06-08T23:31:38.784Z,54.11
2019-06-08T23:34:09.956Z,54.27
2019-06-08T23:36:51.779Z,54.72
2019-06-08T23:39:08.755Z,54.82
2019-06-08T23:41:37.787Z,54.65
2019-06-08T23:44:07.806Z,54.74
2019-06-08T23:46:38.034Z,54.55
2019-06-08T23:49:07.762Z,54.58
2019-06-08T23:51:38.075Z,54.58
2019-06-08T23:54:11.999Z,54.39
2019-06-08T23:56:37.517Z,54.69
2019-06-08T23:59:07.260Z,54.76
